sensor_id;sensor_type;location;lat;lon;timestamp;P1;durP1;ratioP1;P2;durP2;ratioP2
66886;SDS011;53798;51.680;5.976;2022-09-09T00:04:48;1.75;;;1.65;;
66886;SDS011;53798;51.680;5.976;2022-09-09T00:07:43;2.80;;;1.70;;
66886;SDS011;53798;51.680;5.976;2022-09-09T00:10:20;2.95;;;1.90;;
66886;SDS011;53798;51.680;5.976;2022-09-09T00:16:31;2.05;;;1.77;;
66886;SDS011;53798;51.680;5.976;2022-09-09T00:19:28;3.15;;;1.90;;
66886;SDS011;53798;51.680;5.976;2022-09-09T00:22:15;4.63;;;1.88;;
66886;SDS011;53798;51.680;5.976;2022-09-09T00:24:45;2.95;;;2.35;;
66886;SDS011;53798;51.680;5.976;2022-09-09T00:27:34;5.43;;;2.28;;
66886;SDS011;53798;51.680;5.976;2022-09-09T00:32:37;2.72;;;2.03;;
66886;SDS011;53798;51.680;5.976;2022-09-09T00:35:22;3.65;;;1.85;;
66886;SDS011;53798;51.680;5.976;2022-09-09T00:37:54;3.90;;;2.10;;
66886;SDS011;53798;51.680;5.976;2022-09-09T00:40:31;4.40;;;2.63;;
66886;SDS011;53798;51.680;5.976;2022-09-09T00:55:09;2.80;;;2.17;;
66886;SDS011;53798;51.680;5.976;2022-09-09T00:57:51;3.10;;;2.30;;
66886;SDS011;53798;51.680;5.976;2022-09-09T01:00:27;2.97;;;2.28;;
66886;SDS011;53798;51.680;5.976;2022-09-09T01:06:22;3.67;;;2.22;;
66886;SDS011;53798;51.680;5.976;2022-09-09T01:09:32;3.67;;;2.10;;
66886;SDS011;53798;51.680;5.976;2022-09-09T01:12:40;4.22;;;2.10;;
66886;SDS011;53798;51.680;5.976;2022-09-09T01:15:32;4.53;;;2.78;;
66886;SDS011;53798;51.680;5.976;2022-09-09T01:18:21;3.95;;;2.35;;
66886;SDS011;53798;51.680;5.976;2022-09-09T01:21:00;4.22;;;2.63;;
66886;SDS011;53798;51.680;5.976;2022-09-09T01:24:04;2.70;;;2.35;;
66886;SDS011;53798;51.680;5.976;2022-09-09T01:27:22;4.10;;;2.60;;
66886;SDS011;53798;51.680;5.976;2022-09-09T01:29:51;3.78;;;2.53;;
66886;SDS011;53798;51.680;5.976;2022-09-09T01:32:40;4.32;;;2.60;;
66886;SDS011;53798;51.680;5.976;2022-09-09T01:38:11;3.25;;;2.60;;
66886;SDS011;53798;51.680;5.976;2022-09-09T01:40:40;3.95;;;2.90;;
66886;SDS011;53798;51.680;5.976;2022-09-09T01:43:08;3.58;;;2.70;;
66886;SDS011;53798;51.680;5.976;2022-09-09T01:45:37;4.38;;;2.95;;
66886;SDS011;53798;51.680;5.976;2022-09-09T01:48:08;6.30;;;2.90;;
66886;SDS011;53798;51.680;5.976;2022-09-09T01:50:41;3.95;;;2.90;;
66886;SDS011;53798;51.680;5.976;2022-09-09T01:53:45;4.35;;;2.53;;
66886;SDS011;53798;51.680;5.976;2022-09-09T01:56:30;5.72;;;2.80;;
66886;SDS011;53798;51.680;5.976;2022-09-09T02:02:23;6.45;;;2.80;;
66886;SDS011;53798;51.680;5.976;2022-09-09T02:08:20;5.60;;;2.92;;
66886;SDS011;53798;51.680;5.976;2022-09-09T02:11:15;7.37;;;2.97;;
66886;SDS011;53798;51.680;5.976;2022-09-09T02:14:12;4.57;;;2.97;;
66886;SDS011;53798;51.680;5.976;2022-09-09T02:16:48;4.38;;;2.90;;
66886;SDS011;53798;51.680;5.976;2022-09-09T02:19:41;5.68;;;3.00;;
66886;SDS011;53798;51.680;5.976;2022-09-09T02:22:24;5.53;;;3.10;;
66886;SDS011;53798;51.680;5.976;2022-09-09T02:24:58;6.50;;;3.03;;
66886;SDS011;53798;51.680;5.976;2022-09-09T02:27:29;4.80;;;3.40;;
66886;SDS011;53798;51.680;5.976;2022-09-09T02:29:56;4.93;;;3.10;;
66886;SDS011;53798;51.680;5.976;2022-09-09T02:32:40;7.20;;;3.38;;
66886;SDS011;53798;51.680;5.976;2022-09-09T02:35:13;5.78;;;3.10;;
66886;SDS011;53798;51.680;5.976;2022-09-09T02:37:46;5.40;;;3.25;;
66886;SDS011;53798;51.680;5.976;2022-09-09T02:40:15;5.50;;;2.97;;
66886;SDS011;53798;51.680;5.976;2022-09-09T02:42:48;6.07;;;3.00;;
66886;SDS011;53798;51.680;5.976;2022-09-09T02:45:18;4.30;;;3.20;;
66886;SDS011;53798;51.680;5.976;2022-09-09T02:51:06;6.47;;;3.35;;
66886;SDS011;53798;51.680;5.976;2022-09-09T02:53:59;4.35;;;3.05;;
66886;SDS011;53798;51.680;5.976;2022-09-09T02:56:39;5.20;;;3.13;;
66886;SDS011;53798;51.680;5.976;2022-09-09T02:59:12;9.82;;;3.40;;
66886;SDS011;53798;51.680;5.976;2022-09-09T03:01:40;6.97;;;3.10;;
66886;SDS011;53798;51.680;5.976;2022-09-09T03:04:09;6.97;;;3.00;;
66886;SDS011;53798;51.680;5.976;2022-09-09T03:06:37;8.93;;;3.53;;
66886;SDS011;53798;51.680;5.976;2022-09-09T03:09:15;8.75;;;3.78;;
66886;SDS011;53798;51.680;5.976;2022-09-09T03:11:44;7.28;;;3.33;;
66886;SDS011;53798;51.680;5.976;2022-09-09T03:14:13;6.93;;;3.28;;
66886;SDS011;53798;51.680;5.976;2022-09-09T03:16:40;8.75;;;3.60;;
66886;SDS011;53798;51.680;5.976;2022-09-09T03:19:09;8.13;;;3.40;;
66886;SDS011;53798;51.680;5.976;2022-09-09T03:21:36;10.98;;;3.72;;
66886;SDS011;53798;51.680;5.976;2022-09-09T03:24:04;7.55;;;3.50;;
66886;SDS011;53798;51.680;5.976;2022-09-09T03:26:33;7.45;;;3.50;;
66886;SDS011;53798;51.680;5.976;2022-09-09T03:29:00;7.25;;;3.30;;
66886;SDS011;53798;51.680;5.976;2022-09-09T03:31:29;6.97;;;3.50;;
66886;SDS011;53798;51.680;5.976;2022-09-09T03:33:58;9.23;;;3.63;;
66886;SDS011;53798;51.680;5.976;2022-09-09T03:36:28;9.60;;;3.90;;
66886;SDS011;53798;51.680;5.976;2022-09-09T03:38:56;5.82;;;3.50;;
66886;SDS011;53798;51.680;5.976;2022-09-09T03:41:26;6.50;;;3.50;;
66886;SDS011;53798;51.680;5.976;2022-09-09T03:43:54;6.35;;;3.42;;
66886;SDS011;53798;51.680;5.976;2022-09-09T03:46:24;6.75;;;3.70;;
66886;SDS011;53798;51.680;5.976;2022-09-09T03:48:53;6.10;;;3.60;;
66886;SDS011;53798;51.680;5.976;2022-09-09T03:51:20;7.07;;;3.38;;
66886;SDS011;53798;51.680;5.976;2022-09-09T03:53:48;8.45;;;3.72;;
66886;SDS011;53798;51.680;5.976;2022-09-09T03:56:15;10.68;;;4.03;;
66886;SDS011;53798;51.680;5.976;2022-09-09T03:58:42;10.75;;;3.83;;
66886;SDS011;53798;51.680;5.976;2022-09-09T04:01:12;7.95;;;3.95;;
66886;SDS011;53798;51.680;5.976;2022-09-09T04:03:42;7.95;;;3.97;;
66886;SDS011;53798;51.680;5.976;2022-09-09T04:06:12;10.05;;;3.83;;
66886;SDS011;53798;51.680;5.976;2022-09-09T04:08:44;8.63;;;3.58;;
66886;SDS011;53798;51.680;5.976;2022-09-09T04:11:13;6.72;;;3.70;;
66886;SDS011;53798;51.680;5.976;2022-09-09T04:13:40;10.18;;;4.20;;
66886;SDS011;53798;51.680;5.976;2022-09-09T04:16:11;9.00;;;3.72;;
66886;SDS011;53798;51.680;5.976;2022-09-09T04:18:41;9.55;;;3.85;;
66886;SDS011;53798;51.680;5.976;2022-09-09T04:21:09;10.38;;;3.88;;
66886;SDS011;53798;51.680;5.976;2022-09-09T04:23:40;9.98;;;3.90;;
66886;SDS011;53798;51.680;5.976;2022-09-09T04:26:07;7.47;;;3.72;;
66886;SDS011;53798;51.680;5.976;2022-09-09T04:28:36;10.45;;;3.83;;
66886;SDS011;53798;51.680;5.976;2022-09-09T04:31:10;7.60;;;3.63;;
66886;SDS011;53798;51.680;5.976;2022-09-09T04:33:46;10.25;;;3.90;;
66886;SDS011;53798;51.680;5.976;2022-09-09T04:36:13;8.75;;;3.90;;
66886;SDS011;53798;51.680;5.976;2022-09-09T04:38:41;6.03;;;3.30;;
66886;SDS011;53798;51.680;5.976;2022-09-09T04:41:08;11.52;;;3.53;;
66886;SDS011;53798;51.680;5.976;2022-09-09T04:43:38;8.40;;;3.47;;
66886;SDS011;53798;51.680;5.976;2022-09-09T04:46:07;8.60;;;3.55;;
66886;SDS011;53798;51.680;5.976;2022-09-09T04:48:34;6.03;;;3.70;;
66886;SDS011;53798;51.680;5.976;2022-09-09T04:51:04;5.80;;;3.25;;
66886;SDS011;53798;51.680;5.976;2022-09-09T04:53:34;8.98;;;3.67;;
66886;SDS011;53798;51.680;5.976;2022-09-09T04:56:06;6.78;;;3.13;;
66886;SDS011;53798;51.680;5.976;2022-09-09T04:58:50;8.40;;;3.00;;
66886;SDS011;53798;51.680;5.976;2022-09-09T05:01:21;8.65;;;3.00;;
66886;SDS011;53798;51.680;5.976;2022-09-09T05:03:52;12.43;;;3.10;;
66886;SDS011;53798;51.680;5.976;2022-09-09T05:06:22;6.97;;;3.00;;
66886;SDS011;53798;51.680;5.976;2022-09-09T05:08:54;6.90;;;2.80;;
66886;SDS011;53798;51.680;5.976;2022-09-09T05:11:28;4.82;;;2.33;;
66886;SDS011;53798;51.680;5.976;2022-09-09T05:14:04;11.38;;;2.80;;
66886;SDS011;53798;51.680;5.976;2022-09-09T05:16:32;8.73;;;3.05;;
66886;SDS011;53798;51.680;5.976;2022-09-09T05:18:59;7.07;;;2.45;;
66886;SDS011;53798;51.680;5.976;2022-09-09T05:21:35;12.48;;;2.38;;
66886;SDS011;53798;51.680;5.976;2022-09-09T05:24:02;7.00;;;2.47;;
66886;SDS011;53798;51.680;5.976;2022-09-09T05:26:30;10.07;;;3.13;;
66886;SDS011;53798;51.680;5.976;2022-09-09T05:28:58;7.45;;;2.72;;
66886;SDS011;53798;51.680;5.976;2022-09-09T05:31:29;6.70;;;2.42;;
66886;SDS011;53798;51.680;5.976;2022-09-09T05:34:01;8.23;;;2.38;;
66886;SDS011;53798;51.680;5.976;2022-09-09T05:36:29;16.20;;;2.70;;
66886;SDS011;53798;51.680;5.976;2022-09-09T05:38:56;9.20;;;2.45;;
66886;SDS011;53798;51.680;5.976;2022-09-09T05:41:26;7.45;;;2.30;;
66886;SDS011;53798;51.680;5.976;2022-09-09T05:43:55;11.88;;;2.20;;
66886;SDS011;53798;51.680;5.976;2022-09-09T05:46:23;10.60;;;2.70;;
66886;SDS011;53798;51.680;5.976;2022-09-09T05:48:53;9.32;;;2.17;;
66886;SDS011;53798;51.680;5.976;2022-09-09T05:51:27;8.73;;;1.95;;
66886;SDS011;53798;51.680;5.976;2022-09-09T05:53:58;10.93;;;2.42;;
66886;SDS011;53798;51.680;5.976;2022-09-09T05:56:29;6.68;;;2.03;;
66886;SDS011;53798;51.680;5.976;2022-09-09T05:58:59;10.15;;;2.45;;
66886;SDS011;53798;51.680;5.976;2022-09-09T06:01:31;14.75;;;2.40;;
66886;SDS011;53798;51.680;5.976;2022-09-09T06:04:01;8.80;;;1.92;;
66886;SDS011;53798;51.680;5.976;2022-09-09T06:06:32;9.70;;;1.85;;
66886;SDS011;53798;51.680;5.976;2022-09-09T06:09:07;12.20;;;2.42;;
66886;SDS011;53798;51.680;5.976;2022-09-09T06:11:39;20.30;;;2.67;;
66886;SDS011;53798;51.680;5.976;2022-09-09T06:14:07;10.40;;;2.55;;
66886;SDS011;53798;51.680;5.976;2022-09-09T06:16:37;10.13;;;2.00;;
66886;SDS011;53798;51.680;5.976;2022-09-09T06:19:11;9.48;;;2.13;;
66886;SDS011;53798;51.680;5.976;2022-09-09T06:21:39;11.85;;;2.55;;
66886;SDS011;53798;51.680;5.976;2022-09-09T06:24:08;11.20;;;2.33;;
66886;SDS011;53798;51.680;5.976;2022-09-09T06:26:36;8.07;;;2.08;;
66886;SDS011;53798;51.680;5.976;2022-09-09T06:29:11;7.07;;;2.30;;
66886;SDS011;53798;51.680;5.976;2022-09-09T06:31:40;13.50;;;2.65;;
66886;SDS011;53798;51.680;5.976;2022-09-09T06:34:18;15.98;;;2.65;;
66886;SDS011;53798;51.680;5.976;2022-09-09T06:36:49;8.20;;;2.40;;
66886;SDS011;53798;51.680;5.976;2022-09-09T06:39:17;14.23;;;2.17;;
66886;SDS011;53798;51.680;5.976;2022-09-09T06:41:45;9.60;;;2.30;;
66886;SDS011;53798;51.680;5.976;2022-09-09T06:44:33;10.18;;;2.30;;
66886;SDS011;53798;51.680;5.976;2022-09-09T06:47:02;8.88;;;2.08;;
66886;SDS011;53798;51.680;5.976;2022-09-09T06:49:31;13.93;;;3.10;;
66886;SDS011;53798;51.680;5.976;2022-09-09T06:51:58;10.90;;;2.22;;
66886;SDS011;53798;51.680;5.976;2022-09-09T06:54:27;12.30;;;2.25;;
66886;SDS011;53798;51.680;5.976;2022-09-09T06:56:55;13.30;;;2.47;;
66886;SDS011;53798;51.680;5.976;2022-09-09T06:59:23;24.98;;;3.20;;
66886;SDS011;53798;51.680;5.976;2022-09-09T07:01:53;14.05;;;2.50;;
66886;SDS011;53798;51.680;5.976;2022-09-09T07:04:23;7.28;;;1.98;;
66886;SDS011;53798;51.680;5.976;2022-09-09T07:06:50;15.20;;;2.90;;
66886;SDS011;53798;51.680;5.976;2022-09-09T07:09:24;11.30;;;2.15;;
66886;SDS011;53798;51.680;5.976;2022-09-09T07:11:52;10.88;;;2.22;;
66886;SDS011;53798;51.680;5.976;2022-09-09T07:14:23;9.40;;;2.20;;
66886;SDS011;53798;51.680;5.976;2022-09-09T07:19:27;13.32;;;2.25;;
66886;SDS011;53798;51.680;5.976;2022-09-09T07:21:55;12.48;;;2.40;;
66886;SDS011;53798;51.680;5.976;2022-09-09T07:24:24;12.90;;;2.28;;
66886;SDS011;53798;51.680;5.976;2022-09-09T07:26:53;11.75;;;2.17;;
66886;SDS011;53798;51.680;5.976;2022-09-09T07:29:20;13.68;;;2.20;;
66886;SDS011;53798;51.680;5.976;2022-09-09T07:31:50;12.35;;;2.45;;
66886;SDS011;53798;51.680;5.976;2022-09-09T07:34:23;13.20;;;2.60;;
66886;SDS011;53798;51.680;5.976;2022-09-09T07:36:51;11.90;;;2.28;;
66886;SDS011;53798;51.680;5.976;2022-09-09T07:39:19;7.82;;;1.70;;
66886;SDS011;53798;51.680;5.976;2022-09-09T07:41:52;11.82;;;2.47;;
66886;SDS011;53798;51.680;5.976;2022-09-09T07:44:25;8.20;;;2.33;;
66886;SDS011;53798;51.680;5.976;2022-09-09T07:47:06;14.23;;;2.40;;
66886;SDS011;53798;51.680;5.976;2022-09-09T07:49:40;9.13;;;1.80;;
66886;SDS011;53798;51.680;5.976;2022-09-09T07:52:08;9.02;;;1.63;;
66886;SDS011;53798;51.680;5.976;2022-09-09T07:54:39;12.40;;;1.98;;
66886;SDS011;53798;51.680;5.976;2022-09-09T07:57:06;10.45;;;2.30;;
66886;SDS011;53798;51.680;5.976;2022-09-09T07:59:37;26.70;;;3.50;;
66886;SDS011;53798;51.680;5.976;2022-09-09T08:02:05;7.05;;;1.90;;
66886;SDS011;53798;51.680;5.976;2022-09-09T08:04:34;7.28;;;1.90;;
66886;SDS011;53798;51.680;5.976;2022-09-09T08:07:03;6.00;;;1.85;;
66886;SDS011;53798;51.680;5.976;2022-09-09T08:09:41;9.00;;;1.92;;
66886;SDS011;53798;51.680;5.976;2022-09-09T08:12:18;9.15;;;1.85;;
66886;SDS011;53798;51.680;5.976;2022-09-09T08:14:45;7.63;;;1.80;;
66886;SDS011;53798;51.680;5.976;2022-09-09T08:17:12;7.35;;;1.98;;
66886;SDS011;53798;51.680;5.976;2022-09-09T08:19:39;13.82;;;2.60;;
66886;SDS011;53798;51.680;5.976;2022-09-09T08:22:12;5.40;;;1.60;;
66886;SDS011;53798;51.680;5.976;2022-09-09T08:24:39;8.90;;;1.88;;
66886;SDS011;53798;51.680;5.976;2022-09-09T08:27:08;6.07;;;1.80;;
66886;SDS011;53798;51.680;5.976;2022-09-09T08:29:37;13.02;;;2.25;;
66886;SDS011;53798;51.680;5.976;2022-09-09T08:32:05;12.75;;;1.80;;
66886;SDS011;53798;51.680;5.976;2022-09-09T08:34:33;8.45;;;1.45;;
66886;SDS011;53798;51.680;5.976;2022-09-09T08:37:04;11.43;;;1.67;;
66886;SDS011;53798;51.680;5.976;2022-09-09T08:39:36;6.55;;;1.40;;
66886;SDS011;53798;51.680;5.976;2022-09-09T08:42:25;4.85;;;1.20;;
66886;SDS011;53798;51.680;5.976;2022-09-09T08:50:39;7.70;;;1.45;;
66886;SDS011;53798;51.680;5.976;2022-09-09T08:53:23;10.18;;;1.70;;
66886;SDS011;53798;51.680;5.976;2022-09-09T08:56:01;5.57;;;1.55;;
66886;SDS011;53798;51.680;5.976;2022-09-09T08:58:51;8.43;;;1.45;;
66886;SDS011;53798;51.680;5.976;2022-09-09T09:04:43;7.65;;;1.30;;
66886;SDS011;53798;51.680;5.976;2022-09-09T09:13:23;14.00;;;1.30;;
66886;SDS011;53798;51.680;5.976;2022-09-09T09:16:14;6.40;;;1.40;;
66886;SDS011;53798;51.680;5.976;2022-09-09T09:19:08;10.55;;;1.58;;
66886;SDS011;53798;51.680;5.976;2022-09-09T09:21:43;6.47;;;1.30;;
66886;SDS011;53798;51.680;5.976;2022-09-09T09:24:20;14.13;;;1.75;;
66886;SDS011;53798;51.680;5.976;2022-09-09T09:27:07;6.65;;;1.52;;
66886;SDS011;53798;51.680;5.976;2022-09-09T09:29:50;11.60;;;1.20;;
66886;SDS011;53798;51.680;5.976;2022-09-09T09:32:56;16.42;;;1.77;;
66886;SDS011;53798;51.680;5.976;2022-09-09T09:35:30;11.82;;;1.52;;
66886;SDS011;53798;51.680;5.976;2022-09-09T09:37:57;14.65;;;2.10;;
66886;SDS011;53798;51.680;5.976;2022-09-09T09:40:54;6.03;;;1.42;;
66886;SDS011;53798;51.680;5.976;2022-09-09T09:43:33;3.67;;;1.23;;
66886;SDS011;53798;51.680;5.976;2022-09-09T09:46:21;7.97;;;1.50;;
66886;SDS011;53798;51.680;5.976;2022-09-09T09:49:01;6.22;;;1.15;;
66886;SDS011;53798;51.680;5.976;2022-09-09T09:51:33;4.80;;;1.20;;
66886;SDS011;53798;51.680;5.976;2022-09-09T09:57:11;11.75;;;1.58;;
66886;SDS011;53798;51.680;5.976;2022-09-09T09:59:43;5.75;;;1.10;;
66886;SDS011;53798;51.680;5.976;2022-09-09T10:02:20;10.70;;;1.58;;
66886;SDS011;53798;51.680;5.976;2022-09-09T10:05:03;6.17;;;1.30;;
66886;SDS011;53798;51.680;5.976;2022-09-09T10:08:05;10.13;;;1.55;;
66886;SDS011;53798;51.680;5.976;2022-09-09T10:13:45;9.85;;;1.30;;
66886;SDS011;53798;51.680;5.976;2022-09-09T10:21:57;6.32;;;1.10;;
66886;SDS011;53798;51.680;5.976;2022-09-09T10:36:33;5.78;;;1.40;;
66886;SDS011;53798;51.680;5.976;2022-09-09T10:42:12;11.82;;;1.45;;
66886;SDS011;53798;51.680;5.976;2022-09-09T10:50:35;6.95;;;1.33;;
66886;SDS011;53798;51.680;5.976;2022-09-09T10:53:35;5.82;;;1.10;;
66886;SDS011;53798;51.680;5.976;2022-09-09T10:56:15;7.57;;;1.17;;
66886;SDS011;53798;51.680;5.976;2022-09-09T10:58:48;3.67;;;0.93;;
66886;SDS011;53798;51.680;5.976;2022-09-09T11:04:44;7.15;;;1.10;;
66886;SDS011;53798;51.680;5.976;2022-09-09T11:10:24;16.48;;;2.20;;
66886;SDS011;53798;51.680;5.976;2022-09-09T11:13:17;5.07;;;1.35;;
66886;SDS011;53798;51.680;5.976;2022-09-09T11:15:55;17.02;;;3.05;;
66886;SDS011;53798;51.680;5.976;2022-09-09T11:18:31;6.82;;;1.20;;
66886;SDS011;53798;51.680;5.976;2022-09-09T11:21:10;5.57;;;1.13;;
66886;SDS011;53798;51.680;5.976;2022-09-09T11:23:55;5.47;;;1.10;;
66886;SDS011;53798;51.680;5.976;2022-09-09T11:26:38;4.03;;;1.20;;
66886;SDS011;53798;51.680;5.976;2022-09-09T11:36:19;8.73;;;1.20;;
66886;SDS011;53798;51.680;5.976;2022-09-09T11:44:40;7.05;;;1.45;;
66886;SDS011;53798;51.680;5.976;2022-09-09T11:47:22;8.98;;;1.50;;
66886;SDS011;53798;51.680;5.976;2022-09-09T11:50:10;7.00;;;1.85;;
66886;SDS011;53798;51.680;5.976;2022-09-09T11:53:04;6.47;;;1.60;;
66886;SDS011;53798;51.680;5.976;2022-09-09T11:55:41;6.65;;;1.50;;
66886;SDS011;53798;51.680;5.976;2022-09-09T12:00:42;9.00;;;1.63;;
66886;SDS011;53798;51.680;5.976;2022-09-09T12:06:14;5.50;;;1.65;;
66886;SDS011;53798;51.680;5.976;2022-09-09T12:08:53;6.22;;;1.48;;
66886;SDS011;53798;51.680;5.976;2022-09-09T12:11:32;4.32;;;1.40;;
66886;SDS011;53798;51.680;5.976;2022-09-09T12:13:59;8.52;;;1.70;;
66886;SDS011;53798;51.680;5.976;2022-09-09T12:16:31;4.60;;;1.35;;
66886;SDS011;53798;51.680;5.976;2022-09-09T12:19:26;3.45;;;1.10;;
66886;SDS011;53798;51.680;5.976;2022-09-09T12:28:20;5.85;;;1.60;;
66886;SDS011;53798;51.680;5.976;2022-09-09T12:33:54;5.47;;;1.48;;
66886;SDS011;53798;51.680;5.976;2022-09-09T12:36:23;5.13;;;1.38;;
66886;SDS011;53798;51.680;5.976;2022-09-09T12:39:09;2.70;;;1.60;;
66886;SDS011;53798;51.680;5.976;2022-09-09T12:41:52;5.35;;;1.58;;
66886;SDS011;53798;51.680;5.976;2022-09-09T12:44:24;3.53;;;1.40;;
66886;SDS011;53798;51.680;5.976;2022-09-09T12:46:55;4.57;;;1.70;;
66886;SDS011;53798;51.680;5.976;2022-09-09T12:49:37;4.65;;;1.90;;
66886;SDS011;53798;51.680;5.976;2022-09-09T12:55:04;5.78;;;1.75;;
66886;SDS011;53798;51.680;5.976;2022-09-09T12:57:35;5.03;;;1.80;;
66886;SDS011;53798;51.680;5.976;2022-09-09T13:00:11;6.95;;;2.03;;
66886;SDS011;53798;51.680;5.976;2022-09-09T13:02:53;3.53;;;1.60;;
66886;SDS011;53798;51.680;5.976;2022-09-09T13:05:24;6.28;;;2.00;;
66886;SDS011;53798;51.680;5.976;2022-09-09T13:08:05;3.85;;;1.60;;
66886;SDS011;53798;51.680;5.976;2022-09-09T13:10:38;6.00;;;1.90;;
66886;SDS011;53798;51.680;5.976;2022-09-09T13:15:57;3.63;;;1.42;;
66886;SDS011;53798;51.680;5.976;2022-09-09T13:18:31;2.97;;;1.30;;
66886;SDS011;53798;51.680;5.976;2022-09-09T13:21:03;6.22;;;1.60;;
66886;SDS011;53798;51.680;5.976;2022-09-09T13:23:32;5.20;;;1.70;;
66886;SDS011;53798;51.680;5.976;2022-09-09T13:26:05;6.57;;;1.73;;
66886;SDS011;53798;51.680;5.976;2022-09-09T13:28:50;8.48;;;2.20;;
66886;SDS011;53798;51.680;5.976;2022-09-09T13:31:24;5.07;;;1.55;;
66886;SDS011;53798;51.680;5.976;2022-09-09T13:33:58;5.18;;;1.55;;
66886;SDS011;53798;51.680;5.976;2022-09-09T13:36:32;5.07;;;1.60;;
66886;SDS011;53798;51.680;5.976;2022-09-09T13:39:02;4.47;;;1.60;;
66886;SDS011;53798;51.680;5.976;2022-09-09T13:41:32;9.55;;;1.90;;
66886;SDS011;53798;51.680;5.976;2022-09-09T13:44:03;5.05;;;1.65;;
66886;SDS011;53798;51.680;5.976;2022-09-09T13:46:34;6.93;;;1.77;;
66886;SDS011;53798;51.680;5.976;2022-09-09T13:51:42;7.97;;;1.95;;
66886;SDS011;53798;51.680;5.976;2022-09-09T13:54:14;7.22;;;1.58;;
66886;SDS011;53798;51.680;5.976;2022-09-09T13:56:44;5.55;;;1.50;;
66886;SDS011;53798;51.680;5.976;2022-09-09T13:59:12;6.40;;;1.88;;
66886;SDS011;53798;51.680;5.976;2022-09-09T14:01:42;5.05;;;1.70;;
66886;SDS011;53798;51.680;5.976;2022-09-09T14:04:10;11.13;;;1.92;;
66886;SDS011;53798;51.680;5.976;2022-09-09T14:06:40;6.32;;;2.00;;
66886;SDS011;53798;51.680;5.976;2022-09-09T14:09:12;7.38;;;1.60;;
66886;SDS011;53798;51.680;5.976;2022-09-09T14:11:43;6.75;;;1.55;;
66886;SDS011;53798;51.680;5.976;2022-09-09T14:14:15;4.38;;;1.30;;
66886;SDS011;53798;51.680;5.976;2022-09-09T14:16:42;7.05;;;1.73;;
66886;SDS011;53798;51.680;5.976;2022-09-09T14:19:12;7.40;;;1.27;;
66886;SDS011;53798;51.680;5.976;2022-09-09T14:21:39;5.68;;;1.52;;
66886;SDS011;53798;51.680;5.976;2022-09-09T14:24:06;5.05;;;1.40;;
66886;SDS011;53798;51.680;5.976;2022-09-09T14:26:33;5.97;;;1.50;;
66886;SDS011;53798;51.680;5.976;2022-09-09T14:29:00;10.40;;;1.77;;
66886;SDS011;53798;51.680;5.976;2022-09-09T14:31:28;5.88;;;1.27;;
66886;SDS011;53798;51.680;5.976;2022-09-09T14:33:55;4.85;;;0.93;;
66886;SDS011;53798;51.680;5.976;2022-09-09T14:36:22;5.20;;;1.08;;
66886;SDS011;53798;51.680;5.976;2022-09-09T14:38:50;3.88;;;0.90;;
66886;SDS011;53798;51.680;5.976;2022-09-09T14:41:19;3.80;;;0.90;;
66886;SDS011;53798;51.680;5.976;2022-09-09T14:43:49;5.57;;;1.02;;
66886;SDS011;53798;51.680;5.976;2022-09-09T14:46:18;3.65;;;0.95;;
66886;SDS011;53798;51.680;5.976;2022-09-09T14:48:47;4.18;;;1.20;;
66886;SDS011;53798;51.680;5.976;2022-09-09T14:51:23;6.35;;;0.88;;
66886;SDS011;53798;51.680;5.976;2022-09-09T14:53:54;4.22;;;1.20;;
66886;SDS011;53798;51.680;5.976;2022-09-09T14:56:27;5.90;;;1.00;;
66886;SDS011;53798;51.680;5.976;2022-09-09T15:01:27;4.15;;;1.00;;
66886;SDS011;53798;51.680;5.976;2022-09-09T15:03:58;6.18;;;1.10;;
66886;SDS011;53798;51.680;5.976;2022-09-09T15:06:29;5.90;;;1.35;;
66886;SDS011;53798;51.680;5.976;2022-09-09T15:09:00;6.30;;;1.20;;
66886;SDS011;53798;51.680;5.976;2022-09-09T15:11:29;5.45;;;1.10;;
66886;SDS011;53798;51.680;5.976;2022-09-09T15:14:06;3.55;;;1.23;;
66886;SDS011;53798;51.680;5.976;2022-09-09T15:16:41;8.02;;;1.45;;
66886;SDS011;53798;51.680;5.976;2022-09-09T15:19:08;4.80;;;1.20;;
66886;SDS011;53798;51.680;5.976;2022-09-09T15:21:36;3.53;;;1.15;;
66886;SDS011;53798;51.680;5.976;2022-09-09T15:24:05;4.40;;;0.95;;
66886;SDS011;53798;51.680;5.976;2022-09-09T15:26:34;5.65;;;1.10;;
66886;SDS011;53798;51.680;5.976;2022-09-09T15:29:05;3.33;;;1.13;;
66886;SDS011;53798;51.680;5.976;2022-09-09T15:31:34;7.80;;;0.80;;
66886;SDS011;53798;51.680;5.976;2022-09-09T15:34:02;5.88;;;1.13;;
66886;SDS011;53798;51.680;5.976;2022-09-09T15:36:35;3.28;;;0.90;;
66886;SDS011;53798;51.680;5.976;2022-09-09T15:39:06;8.45;;;1.40;;
66886;SDS011;53798;51.680;5.976;2022-09-09T15:41:39;2.90;;;1.00;;
66886;SDS011;53798;51.680;5.976;2022-09-09T15:44:06;7.15;;;1.50;;
66886;SDS011;53798;51.680;5.976;2022-09-09T15:46:37;3.42;;;1.27;;
66886;SDS011;53798;51.680;5.976;2022-09-09T15:49:09;4.68;;;1.38;;
66886;SDS011;53798;51.680;5.976;2022-09-09T15:51:43;4.50;;;1.17;;
66886;SDS011;53798;51.680;5.976;2022-09-09T15:54:18;3.58;;;1.20;;
66886;SDS011;53798;51.680;5.976;2022-09-09T15:56:54;3.90;;;0.80;;
66886;SDS011;53798;51.680;5.976;2022-09-09T15:59:25;3.42;;;1.00;;
66886;SDS011;53798;51.680;5.976;2022-09-09T16:01:55;4.90;;;1.00;;
66886;SDS011;53798;51.680;5.976;2022-09-09T16:04:23;4.55;;;1.20;;
66886;SDS011;53798;51.680;5.976;2022-09-09T16:06:51;3.75;;;1.25;;
66886;SDS011;53798;51.680;5.976;2022-09-09T16:09:21;4.05;;;0.95;;
66886;SDS011;53798;51.680;5.976;2022-09-09T16:11:48;3.92;;;1.20;;
66886;SDS011;53798;51.680;5.976;2022-09-09T16:14:15;2.97;;;0.70;;
66886;SDS011;53798;51.680;5.976;2022-09-09T16:16:43;6.93;;;0.93;;
66886;SDS011;53798;51.680;5.976;2022-09-09T16:19:11;2.85;;;0.77;;
66886;SDS011;53798;51.680;5.976;2022-09-09T16:21:40;4.05;;;0.60;;
66886;SDS011;53798;51.680;5.976;2022-09-09T16:24:11;3.88;;;0.50;;
66886;SDS011;53798;51.680;5.976;2022-09-09T16:26:42;2.70;;;0.65;;
66886;SDS011;53798;51.680;5.976;2022-09-09T16:29:13;2.38;;;0.77;;
66886;SDS011;53798;51.680;5.976;2022-09-09T16:31:41;4.85;;;0.45;;
66886;SDS011;53798;51.680;5.976;2022-09-09T16:34:09;1.15;;;0.30;;
66886;SDS011;53798;51.680;5.976;2022-09-09T16:36:38;1.60;;;0.50;;
66886;SDS011;53798;51.680;5.976;2022-09-09T16:39:11;1.42;;;0.40;;
66886;SDS011;53798;51.680;5.976;2022-09-09T16:41:40;2.77;;;0.33;;
66886;SDS011;53798;51.680;5.976;2022-09-09T16:44:11;0.60;;;0.50;;
66886;SDS011;53798;51.680;5.976;2022-09-09T16:46:41;1.63;;;0.35;;
66886;SDS011;53798;51.680;5.976;2022-09-09T16:49:10;3.00;;;1.08;;
66886;SDS011;53798;51.680;5.976;2022-09-09T16:51:41;5.20;;;0.80;;
66886;SDS011;53798;51.680;5.976;2022-09-09T16:54:12;0.75;;;0.50;;
66886;SDS011;53798;51.680;5.976;2022-09-09T16:56:41;1.77;;;0.77;;
66886;SDS011;53798;51.680;5.976;2022-09-09T16:59:13;1.58;;;0.70;;
66886;SDS011;53798;51.680;5.976;2022-09-09T17:01:43;4.75;;;0.80;;
66886;SDS011;53798;51.680;5.976;2022-09-09T17:04:16;4.10;;;1.42;;
66886;SDS011;53798;51.680;5.976;2022-09-09T17:06:48;2.65;;;1.40;;
66886;SDS011;53798;51.680;5.976;2022-09-09T17:09:18;4.90;;;1.10;;
66886;SDS011;53798;51.680;5.976;2022-09-09T17:11:47;2.90;;;0.80;;
66886;SDS011;53798;51.680;5.976;2022-09-09T17:14:18;4.15;;;0.80;;
66886;SDS011;53798;51.680;5.976;2022-09-09T17:16:47;4.53;;;1.50;;
66886;SDS011;53798;51.680;5.976;2022-09-09T17:19:15;2.78;;;1.10;;
66886;SDS011;53798;51.680;5.976;2022-09-09T17:21:42;3.13;;;1.00;;
66886;SDS011;53798;51.680;5.976;2022-09-09T17:24:30;3.80;;;1.20;;
66886;SDS011;53798;51.680;5.976;2022-09-09T17:26:57;2.65;;;1.10;;
66886;SDS011;53798;51.680;5.976;2022-09-09T17:29:24;5.45;;;1.80;;
66886;SDS011;53798;51.680;5.976;2022-09-09T17:31:52;6.18;;;1.40;;
66886;SDS011;53798;51.680;5.976;2022-09-09T17:34:20;3.22;;;1.27;;
66886;SDS011;53798;51.680;5.976;2022-09-09T17:36:48;5.65;;;1.30;;